Time;durP1;ratioP1;P1;durP2;ratioP2;P2;SDS_P1;SDS_P2;PMS_P1;PMS_P2;Temp;Humidity;BMP_temperature;BMP_pressure;BME280_temperature;BME280_humidity;BME280_pressure;Samples;Min_cycle;Max_cycle;Signal;HPM_P1;HPM_P2
2022/04/14 00:01:35;;;;;;;2.17;0.60;;;18.20;69.00;;;;;;5013563;28;20225;-72
2022/04/14 00:04:01;;;;;;;0.70;0.60;;;18.20;69.00;;;;;;5013685;28;20037;-72
2022/04/14 00:06:27;;;;;;;0.82;0.70;;;18.20;69.00;;;;;;5013196;28;20784;-72
2022/04/14 00:08:52;;;;;;;1.25;0.60;;;18.20;69.00;;;;;;5014634;28;20037;-72
2022/04/14 00:11:19;;;;;;;1.30;0.60;;;18.20;69.10;;;;;;5013512;28;20108;-72
2022/04/14 00:13:44;;;;;;;0.77;0.70;;;18.20;69.10;;;;;;5013398;28;20049;-72
2022/04/14 00:16:10;;;;;;;1.42;0.50;;;18.20;69.10;;;;;;5014581;28;20046;-72
2022/04/14 00:18:36;;;;;;;0.80;0.60;;;18.20;69.10;;;;;;5014463;28;20030;-72
2022/04/14 00:21:01;;;;;;;0.50;0.50;;;18.20;69.20;;;;;;5013863;28;20037;-72
2022/04/14 00:23:27;;;;;;;1.25;0.57;;;18.20;69.20;;;;;;5014444;28;20029;-72
2022/04/14 00:25:52;;;;;;;0.90;0.65;;;18.20;69.10;;;;;;5013491;28;20018;-72
2022/04/14 00:28:18;;;;;;;0.85;0.55;;;18.20;69.20;;;;;;5014431;28;20109;-72
2022/04/14 00:30:44;;;;;;;0.75;0.55;;;18.20;69.20;;;;;;5014252;28;20026;-72
2022/04/14 00:33:09;;;;;;;1.80;0.60;;;18.20;69.20;;;;;;5014226;28;20034;-72
2022/04/14 00:35:35;;;;;;;1.73;0.80;;;18.20;69.20;;;;;;5026114;28;20035;-72
2022/04/14 00:38:01;;;;;;;0.50;0.50;;;18.20;69.30;;;;;;5032861;28;20106;-72
2022/04/14 00:40:26;;;;;;;0.73;0.55;;;18.20;69.30;;;;;;5033677;28;20557;-72
2022/04/14 00:42:52;;;;;;;1.17;0.50;;;18.20;69.30;;;;;;5029720;28;20029;-71
2022/04/14 00:45:17;;;;;;;1.52;0.50;;;18.20;69.30;;;;;;5014032;28;20029;-72
2022/04/14 00:47:43;;;;;;;0.93;0.60;;;18.20;69.40;;;;;;5013645;28;20048;-72
2022/04/14 00:50:09;;;;;;;0.40;0.40;;;18.20;69.40;;;;;;5012610;28;20157;-72
2022/04/14 00:52:34;;;;;;;0.52;0.52;;;18.20;69.40;;;;;;5012757;28;20026;-72
2022/04/14 00:55:00;;;;;;;0.65;0.50;;;18.20;69.50;;;;;;5013857;28;20026;-71
2022/04/14 00:57:26;;;;;;;1.02;0.50;;;18.20;69.50;;;;;;5013873;28;20037;-71
2022/04/14 00:59:51;;;;;;;0.65;0.60;;;18.20;69.50;;;;;;5012334;28;20579;-71
2022/04/14 01:02:17;;;;;;;2.03;0.73;;;18.20;69.50;;;;;;5013667;28;20112;-71
2022/04/14 01:04:42;;;;;;;0.45;0.40;;;18.20;69.50;;;;;;5013537;28;21015;-71
2022/04/14 01:07:08;;;;;;;0.80;0.60;;;18.10;69.50;;;;;;5012150;28;20060;-71
2022/04/14 01:09:34;;;;;;;1.55;0.57;;;18.20;69.60;;;;;;5012123;28;20032;-71
2022/04/14 01:12:00;;;;;;;1.48;0.60;;;18.20;69.60;;;;;;5013717;28;20484;-72
2022/04/14 01:14:33;;;;;;;0.52;0.52;;;18.20;70.60;;;;;;5012153;28;20032;-72
2022/04/14 01:17:00;;;;;;;2.05;0.88;;;18.20;69.60;;;;;;5012390;28;20424;-72
2022/04/14 01:19:26;;;;;;;3.17;0.70;;;18.20;69.70;;;;;;5012075;28;20021;-72
2022/04/14 01:22:00;;;;;;;0.40;0.40;;;18.20;69.70;;;;;;5012145;28;20475;-72
2022/04/14 01:24:26;;;;;;;1.17;0.65;;;18.20;69.70;;;;;;5013286;28;20558;-72
2022/04/14 01:26:53;;;;;;;3.97;0.70;;;18.20;69.80;;;;;;5012052;28;20026;-72
2022/04/14 01:29:23;;;;;;;1.38;0.60;;;18.10;69.70;;;;;;5013440;28;20010;-72
2022/04/14 01:31:49;;;;;;;0.95;0.73;;;18.10;69.70;;;;;;5013104;28;20026;-72
2022/04/14 01:34:15;;;;;;;1.00;0.65;;;18.20;69.70;;;;;;5013345;28;20018;-71
2022/04/14 01:36:40;;;;;;;0.63;0.50;;;18.20;69.80;;;;;;5032846;28;20159;-71
2022/04/14 01:39:08;;;;;;;1.33;0.50;;;18.20;69.70;;;;;;5031769;28;20021;-71
2022/04/14 01:41:34;;;;;;;0.52;0.52;;;18.20;69.80;;;;;;5031371;28;20022;-72
2022/04/14 01:43:59;;;;;;;1.10;0.60;;;18.20;69.80;;;;;;5019616;28;20021;-72
2022/04/14 01:46:25;;;;;;;1.15;0.50;;;18.10;69.80;;;;;;5011474;28;20523;-72
2022/04/14 01:48:51;;;;;;;0.75;0.70;;;18.20;69.80;;;;;;5012696;28;20018;-72
2022/04/14 01:51:16;;;;;;;0.40;0.40;;;18.20;69.90;;;;;;5011991;28;20041;-72
2022/04/14 01:53:42;;;;;;;1.52;0.80;;;18.10;69.80;;;;;;5011739;28;20036;-72
2022/04/14 01:56:07;;;;;;;0.70;0.60;;;18.20;69.90;;;;;;5012756;28;20030;-72
2022/04/14 01:58:33;;;;;;;0.50;0.50;;;18.10;69.80;;;;;;5011466;28;20484;-72
2022/04/14 02:00:59;;;;;;;0.50;0.50;;;18.10;69.80;;;;;;5012875;28;20095;-72
2022/04/14 02:03:24;;;;;;;0.95;0.47;;;18.10;69.80;;;;;;5012570;28;20110;-72
2022/04/14 02:05:50;;;;;;;1.85;0.60;;;18.10;69.90;;;;;;5012482;28;20088;-72
2022/04/14 02:08:16;;;;;;;2.08;0.60;;;18.10;69.90;;;;;;5012688;28;20071;-72
2022/04/14 02:10:41;;;;;;;0.98;0.63;;;18.10;69.90;;;;;;5012586;28;20041;-72
2022/04/14 02:13:07;;;;;;;1.42;0.63;;;18.10;70.00;;;;;;5012615;28;20439;-72
2022/04/14 02:15:33;;;;;;;1.23;0.70;;;18.10;70.00;;;;;;5012396;28;20493;-72
2022/04/14 02:17:58;;;;;;;1.08;0.60;;;18.10;70.00;;;;;;5012431;28;20106;-72
2022/04/14 02:20:24;;;;;;;2.30;0.40;;;18.10;70.00;;;;;;5011604;28;20448;-72
2022/04/14 02:22:49;;;;;;;0.55;0.32;;;18.10;70.00;;;;;;5012311;28;20021;-72
2022/04/14 02:25:15;;;;;;;0.55;0.50;;;18.10;70.00;;;;;;5011558;28;20029;-72
2022/04/14 02:27:41;;;;;;;0.55;0.45;;;18.10;70.00;;;;;;5012331;28;20026;-72
2022/04/14 02:30:07;;;;;;;0.77;0.50;;;18.10;70.00;;;;;;5012740;28;20069;-72
2022/04/14 02:32:32;;;;;;;0.50;0.50;;;18.10;70.10;;;;;;5010993;28;20088;-72
2022/04/14 02:34:58;;;;;;;0.88;0.50;;;18.10;70.00;;;;;;5019691;28;20033;-72
2022/04/14 02:37:24;;;;;;;0.95;0.40;;;18.10;70.10;;;;;;5030968;28;20102;-72
2022/04/14 02:39:49;;;;;;;0.70;0.60;;;18.10;70.10;;;;;;5031936;28;20099;-72
2022/04/14 02:42:15;;;;;;;0.55;0.50;;;18.10;70.10;;;;;;5031965;28;20021;-72
2022/04/14 02:44:41;;;;;;;0.73;0.57;;;18.10;70.10;;;;;;5013170;28;20033;-72
2022/04/14 02:47:06;;;;;;;0.80;0.40;;;18.10;70.10;;;;;;5011897;28;20046;-72
2022/04/14 02:49:32;;;;;;;3.80;0.50;;;18.10;70.10;;;;;;5012234;28;20029;-72
2022/04/14 02:51:58;;;;;;;0.82;0.60;;;18.10;70.10;;;;;;5012333;28;20022;-72
2022/04/14 02:54:23;;;;;;;0.50;0.40;;;18.10;70.10;;;;;;5012218;28;20075;-72
2022/04/14 02:56:49;;;;;;;1.58;0.75;;;18.10;70.10;;;;;;5012038;28;20028;-72
2022/04/14 02:59:14;;;;;;;1.33;0.50;;;18.10;70.20;;;;;;5012501;28;20026;-72
2022/04/14 03:01:40;;;;;;;1.10;0.50;;;18.10;70.10;;;;;;5011897;28;20396;-71
2022/04/14 03:04:06;;;;;;;0.60;0.40;;;18.10;70.10;;;;;;5011098;28;20029;-72
2022/04/14 03:06:31;;;;;;;0.52;0.50;;;18.10;70.20;;;;;;5012342;28;20076;-72
2022/04/14 03:08:57;;;;;;;0.60;0.60;;;18.10;70.20;;;;;;5012104;28;20026;-72
2022/04/14 03:11:22;;;;;;;0.88;0.50;;;18.10;70.20;;;;;;5012195;28;20439;-72
2022/04/14 03:13:48;;;;;;;0.65;0.65;;;18.10;70.20;;;;;;5011690;28;20038;-72
2022/04/14 03:16:14;;;;;;;1.80;0.65;;;18.10;70.30;;;;;;5012172;28;20029;-72
2022/04/14 03:18:39;;;;;;;0.60;0.60;;;18.00;70.20;;;;;;5012038;28;20084;-72
2022/04/14 03:21:05;;;;;;;0.70;0.40;;;18.10;70.30;;;;;;5011897;28;20068;-72
2022/04/14 03:23:31;;;;;;;0.35;0.32;;;18.10;70.30;;;;;;5011842;28;20026;-72
2022/04/14 03:25:56;;;;;;;0.60;0.60;;;18.00;70.20;;;;;;5011975;28;20022;-72
2022/04/14 03:28:22;;;;;;;0.98;0.65;;;18.00;70.20;;;;;;5011836;28;20037;-72
2022/04/14 03:30:48;;;;;;;0.40;0.40;;;18.00;70.20;;;;;;5011690;28;20022;-72
2022/04/14 03:33:13;;;;;;;1.55;0.50;;;18.00;70.30;;;;;;5014254;28;20111;-72
2022/04/14 03:35:39;;;;;;;0.60;0.60;;;18.00;70.30;;;;;;5026893;28;20420;-72
2022/04/14 03:38:05;;;;;;;0.65;0.60;;;18.00;70.30;;;;;;5035288;28;20033;-71
2022/04/14 03:40:30;;;;;;;1.80;0.55;;;18.00;70.30;;;;;;5035054;28;20033;-72
2022/04/14 03:42:56;;;;;;;0.80;0.47;;;18.00;70.30;;;;;;5030111;28;20562;-72
2022/04/14 03:45:22;;;;;;;0.82;0.50;;;18.00;71.30;;;;;;5015337;28;20021;-72
2022/04/14 03:47:47;;;;;;;0.50;0.50;;;18.00;70.30;;;;;;5014717;28;20049;-71
2022/04/14 03:50:13;;;;;;;0.40;0.30;;;18.00;70.30;;;;;;4997429;28;20025;-71
2022/04/14 03:52:39;;;;;;;0.30;0.30;;;18.00;70.30;;;;;;5015075;28;20038;-71
2022/04/14 03:55:06;;;;;;;0.50;0.50;;;18.00;70.30;;;;;;5013897;28;20022;-71
2022/04/14 03:57:31;;;;;;;0.50;0.50;;;18.00;70.30;;;;;;5014696;28;20044;-71
2022/04/14 03:59:57;;;;;;;0.88;0.60;;;18.00;70.30;;;;;;5014869;28;20109;-71
2022/04/14 04:02:22;;;;;;;0.70;0.40;;;18.00;70.30;;;;;;5013571;28;20048;-71
2022/04/14 04:04:48;;;;;;;1.15;0.40;;;18.00;70.40;;;;;;5014787;28;20472;-71
2022/04/14 04:07:14;;;;;;;0.63;0.60;;;18.00;70.40;;;;;;5015021;28;20095;-71
2022/04/14 04:09:39;;;;;;;0.60;0.60;;;18.00;70.40;;;;;;5014350;28;20449;-71
2022/04/14 04:12:06;;;;;;;0.50;0.50;;;18.00;70.50;;;;;;5014943;28;20026;-71
2022/04/14 04:14:31;;;;;;;0.52;0.50;;;18.00;70.50;;;;;;5014846;28;20452;-71
2022/04/14 04:16:57;;;;;;;0.55;0.55;;;18.00;70.40;;;;;;5014424;28;20022;-71
2022/04/14 04:19:23;;;;;;;0.55;0.43;;;18.00;70.50;;;;;;5014424;28;20029;-71
2022/04/14 04:21:48;;;;;;;1.15;0.45;;;18.00;70.40;;;;;;5014282;28;20026;-71
2022/04/14 04:24:14;;;;;;;0.50;0.50;;;18.00;70.50;;;;;;5013118;28;20026;-71
2022/04/14 04:26:40;;;;;;;0.65;0.40;;;18.00;70.50;;;;;;5014201;28;20028;-71
2022/04/14 04:29:05;;;;;;;0.73;0.40;;;18.00;70.50;;;;;;5014340;28;20594;-72
2022/04/14 04:31:31;;;;;;;0.40;0.30;;;18.00;70.60;;;;;;5014138;28;20408;-72
2022/04/14 04:33:57;;;;;;;0.50;0.50;;;18.00;70.60;;;;;;5014211;28;20029;-72
2022/04/14 04:36:22;;;;;;;0.47;0.45;;;18.00;70.60;;;;;;5033111;28;20040;-72
2022/04/14 04:38:48;;;;;;;0.70;0.60;;;18.00;70.60;;;;;;5033940;28;20040;-72
2022/04/14 04:41:13;;;;;;;0.55;0.55;;;18.00;70.60;;;;;;5033595;28;20032;-72
2022/04/14 04:43:39;;;;;;;0.50;0.50;;;17.90;70.50;;;;;;5022647;28;20032;-72
2022/04/14 04:46:05;;;;;;;0.98;0.50;;;18.00;70.60;;;;;;5013819;28;20124;-72
2022/04/14 04:48:30;;;;;;;0.47;0.47;;;18.00;70.60;;;;;;5013854;28;20111;-72
2022/04/14 04:50:56;;;;;;;0.80;0.60;;;18.00;70.60;;;;;;5013847;28;20109;-72
2022/04/14 04:53:21;;;;;;;0.85;0.50;;;18.00;70.60;;;;;;5014023;28;20030;-72
2022/04/14 04:55:47;;;;;;;0.93;0.52;;;18.00;70.70;;;;;;5012520;28;20026;-72
2022/04/14 04:58:14;;;;;;;0.57;0.40;;;18.00;70.70;;;;;;5012672;28;20056;-72
2022/04/14 05:00:41;;;;;;;1.70;0.60;;;17.90;70.70;;;;;;5020416;28;20075;-71
2022/04/14 05:03:10;;;;;;;3.83;0.50;;;18.00;70.70;;;;;;5032091;28;20468;-72
2022/04/14 05:05:37;;;;;;;3.95;0.60;;;18.00;70.80;;;;;;5032845;28;20018;-72
2022/04/14 05:08:04;;;;;;;1.02;0.70;;;17.90;70.70;;;;;;5032737;28;20064;-72
2022/04/14 05:10:29;;;;;;;3.70;0.50;;;18.00;70.80;;;;;;5032242;28;20075;-72
2022/04/14 05:12:55;;;;;;;1.10;0.50;;;18.00;70.80;;;;;;5033479;28;20033;-72
2022/04/14 05:15:21;;;;;;;1.63;0.50;;;18.00;70.90;;;;;;5033855;28;20049;-72
2022/04/14 05:17:47;;;;;;;1.00;0.57;;;18.00;70.90;;;;;;5033711;28;20029;-72
2022/04/14 05:20:12;;;;;;;0.50;0.40;;;18.00;70.90;;;;;;5032387;28;20037;-72
2022/04/14 05:22:38;;;;;;;0.88;0.40;;;18.00;70.90;;;;;;5033657;28;20022;-72
2022/04/14 05:25:04;;;;;;;0.47;0.47;;;18.00;70.90;;;;;;5033331;28;20392;-72
2022/04/14 05:27:30;;;;;;;0.68;0.40;;;18.00;70.90;;;;;;5032143;28;20078;-71
2022/04/14 05:29:55;;;;;;;0.90;0.73;;;18.00;70.90;;;;;;5033486;28;20108;-72
2022/04/14 05:32:21;;;;;;;0.60;0.60;;;18.00;70.90;;;;;;5032107;28;20025;-71
2022/04/14 05:34:47;;;;;;;0.85;0.50;;;18.00;70.90;;;;;;5033050;28;20033;-71
2022/04/14 05:37:12;;;;;;;0.80;0.35;;;18.00;71.00;;;;;;5033548;28;20095;-71
2022/04/14 05:39:38;;;;;;;2.72;0.65;;;18.00;71.00;;;;;;5032313;28;20029;-71
2022/04/14 05:42:04;;;;;;;0.50;0.40;;;18.00;71.00;;;;;;5032495;28;20075;-72
2022/04/14 05:44:30;;;;;;;0.70;0.50;;;17.90;70.90;;;;;;5031168;28;20030;-73
2022/04/14 05:46:55;;;;;;;0.60;0.60;;;17.90;70.90;;;;;;5031136;28;20085;-73
2022/04/14 05:49:21;;;;;;;2.97;0.50;;;17.90;70.70;;;;;;5032146;28;20021;-73
2022/04/14 05:51:48;;;;;;;0.52;0.40;;;17.90;70.60;;;;;;5031832;28;20061;-73
2022/04/14 05:54:14;;;;;;;2.97;1.00;;;17.90;70.60;;;;;;5032097;28;20391;-73
2022/04/14 05:56:40;;;;;;;1.23;0.60;;;17.90;70.50;;;;;;5032774;28;20117;-73
2022/04/14 05:59:06;;;;;;;1.00;0.73;;;17.80;70.50;;;;;;5031172;28;20042;-73
2022/04/14 06:01:32;;;;;;;1.60;0.40;;;17.80;70.50;;;;;;5031286;28;20030;-73
2022/04/14 06:03:57;;;;;;;0.80;0.60;;;17.80;70.40;;;;;;5032343;28;20454;-73
2022/04/14 06:06:23;;;;;;;1.33;0.80;;;17.80;70.30;;;;;;5032512;28;20021;-73
2022/04/14 06:08:49;;;;;;;0.82;0.60;;;17.80;70.40;;;;;;5032277;28;20025;-73
2022/04/14 06:11:14;;;;;;;0.80;0.80;;;17.80;70.30;;;;;;5032289;28;20108;-73
2022/04/14 06:13:40;;;;;;;1.95;0.55;;;17.70;70.20;;;;;;5032373;28;20453;-73
2022/04/14 06:16:06;;;;;;;0.80;0.60;;;17.70;70.20;;;;;;5032299;28;20029;-73
2022/04/14 06:18:31;;;;;;;1.60;0.75;;;17.70;70.10;;;;;;5031147;28;20018;-73
2022/04/14 06:20:57;;;;;;;0.70;0.70;;;17.70;70.20;;;;;;5032025;28;20049;-73
2022/04/14 06:23:23;;;;;;;0.85;0.50;;;17.70;70.10;;;;;;5032042;28;20028;-73
2022/04/14 06:25:49;;;;;;;0.85;0.55;;;17.70;70.10;;;;;;5032266;28;20085;-74
2022/04/14 06:28:18;;;;;;;1.95;0.60;;;17.70;70.00;;;;;;5032233;28;20115;-72
2022/04/14 06:30:47;;;;;;;1.63;0.57;;;17.70;71.00;;;;;;5031144;28;20478;-70
2022/04/14 06:33:13;;;;;;;4.97;2.65;;;17.70;70.00;;;;;;5032166;28;20025;-71
2022/04/14 06:35:38;;;;;;;4.47;2.97;;;17.70;69.40;;;;;;5014399;28;20123;-71
2022/04/14 06:38:04;;;;;;;6.05;3.05;;;17.60;68.90;;;;;;5030911;28;20488;-71
2022/04/14 06:40:30;;;;;;;9.35;3.53;;;17.40;68.50;;;;;;5031446;28;20124;-71
2022/04/14 06:42:55;;;;;;;9.38;3.47;;;17.30;68.20;;;;;;5026102;28;20089;-71
2022/04/14 06:45:21;;;;;;;4.60;3.10;;;17.20;68.20;;;;;;5012117;28;20113;-71
2022/04/14 06:47:47;;;;;;;8.27;2.70;;;17.20;68.20;;;;;;5011825;28;20116;-71
2022/04/14 06:50:13;;;;;;;2.97;1.80;;;17.10;68.00;;;;;;5012429;28;22299;-71
2022/04/14 06:52:39;;;;;;;5.75;2.15;;;17.00;68.00;;;;;;5031341;28;20029;-71
2022/04/14 06:55:06;;;;;;;4.75;2.40;;;16.90;67.90;;;;;;5031828;28;20449;-71
2022/04/14 06:57:31;;;;;;;3.50;2.33;;;16.90;67.80;;;;;;5030636;28;20029;-71
2022/04/14 06:59:57;;;;;;;8.60;2.15;;;16.80;67.70;;;;;;5001371;28;20512;-71
2022/04/14 07:02:23;;;;;;;4.18;1.80;;;16.80;67.70;;;;;;5012319;28;20036;-71
2022/04/14 07:04:49;;;;;;;5.32;1.90;;;16.80;67.70;;;;;;5012210;28;20400;-71
2022/04/14 07:07:15;;;;;;;3.65;1.95;;;16.80;67.60;;;;;;5017581;28;20080;-71
2022/04/14 07:09:40;;;;;;;5.88;1.90;;;16.80;67.60;;;;;;5034439;28;20026;-71
2022/04/14 07:12:06;;;;;;;5.72;1.70;;;16.80;67.60;;;;;;5034338;28;20030;-71
2022/04/14 07:14:32;;;;;;;6.95;1.92;;;16.70;67.50;;;;;;5035492;28;20025;-71
2022/04/14 07:16:58;;;;;;;4.50;1.90;;;16.80;67.50;;;;;;5034222;28;20026;-71
2022/04/14 07:19:24;;;;;;;4.10;1.80;;;16.70;67.40;;;;;;5034160;28;20022;-71
2022/04/14 07:21:49;;;;;;;5.43;2.80;;;16.70;67.30;;;;;;5033929;28;20030;-71
2022/04/14 07:24:15;;;;;;;9.93;3.03;;;16.70;67.30;;;;;;5034100;28;20063;-71
2022/04/14 07:26:41;;;;;;;9.48;2.75;;;16.70;67.30;;;;;;5017822;28;20082;-71
2022/04/14 07:29:06;;;;;;;6.13;2.58;;;16.70;67.30;;;;;;5035363;28;20056;-71
2022/04/14 07:31:32;;;;;;;6.93;2.60;;;16.70;67.30;;;;;;5034196;28;20036;-71
2022/04/14 07:33:58;;;;;;;3.45;2.10;;;16.70;67.30;;;;;;5035226;28;20029;-71
2022/04/14 07:36:27;;;;;;;3.35;2.40;;;16.70;67.40;;;;;;5017228;28;20021;-71
2022/04/14 07:38:53;;;;;;;4.05;1.98;;;16.70;67.40;;;;;;5033924;28;20037;-71
2022/04/14 07:41:19;;;;;;;5.38;1.83;;;16.70;67.40;;;;;;5033792;28;20029;-71
2022/04/14 07:43:44;;;;;;;3.25;1.80;;;16.70;67.40;;;;;;5034949;28;20028;-71
2022/04/14 07:46:10;;;;;;;4.45;2.10;;;16.70;67.30;;;;;;5034678;28;20053;-71
2022/04/14 07:48:36;;;;;;;4.03;2.15;;;16.70;67.30;;;;;;5033911;28;20037;-71
2022/04/14 07:51:02;;;;;;;5.38;1.75;;;16.70;67.30;;;;;;5033413;28;20022;-71
2022/04/14 07:53:28;;;;;;;5.22;1.85;;;16.70;67.40;;;;;;5033760;28;20037;-71
2022/04/14 07:55:54;;;;;;;2.90;1.55;;;16.70;67.30;;;;;;5033731;28;20025;-71
2022/04/14 07:58:20;;;;;;;3.42;1.63;;;16.70;67.30;;;;;;5033086;28;20047;-71
2022/04/14 08:00:46;;;;;;;4.97;1.50;;;16.70;67.30;;;;;;5014899;28;20110;-71
2022/04/14 08:03:12;;;;;;;3.45;1.45;;;16.70;67.30;;;;;;5013665;28;20445;-71
2022/04/14 08:05:39;;;;;;;3.08;1.50;;;16.70;67.30;;;;;;5013433;28;20022;-71
2022/04/14 08:08:06;;;;;;;9.07;2.05;;;16.70;67.30;;;;;;5014678;28;20033;-71
2022/04/14 08:10:32;;;;;;;6.93;1.63;;;16.70;67.30;;;;;;5013586;28;20072;-71
2022/04/14 08:12:58;;;;;;;7.97;1.90;;;16.70;67.40;;;;;;5013440;28;20030;-71
2022/04/14 08:15:23;;;;;;;3.90;1.55;;;16.70;67.40;;;;;;5014632;28;20076;-71
2022/04/14 08:17:49;;;;;;;4.68;1.45;;;16.80;67.40;;;;;;5013417;28;20508;-71
2022/04/14 08:20:15;;;;;;;4.72;1.40;;;16.80;67.40;;;;;;5014087;28;20026;-71
2022/04/14 08:22:44;;;;;;;3.28;1.27;;;16.70;67.40;;;;;;5013420;28;20029;-71
2022/04/14 08:25:10;;;;;;;3.92;1.40;;;16.80;67.40;;;;;;5014381;28;20105;-71
2022/04/14 08:27:36;;;;;;;2.25;1.00;;;16.80;67.50;;;;;;5013299;28;20010;-71
2022/04/14 08:30:02;;;;;;;4.38;1.35;;;16.70;67.40;;;;;;5013246;28;20029;-71
2022/04/14 08:32:27;;;;;;;3.42;1.20;;;16.70;67.40;;;;;;5012967;28;20034;-71
2022/04/14 08:34:53;;;;;;;5.22;1.55;;;16.80;67.50;;;;;;5019532;28;20052;-71
2022/04/14 08:37:19;;;;;;;4.10;1.33;;;16.70;67.50;;;;;;5032714;28;20087;-71
2022/04/14 08:39:45;;;;;;;3.47;1.17;;;16.70;67.50;;;;;;5034002;28;20025;-71
2022/04/14 08:42:13;;;;;;;1.40;1.05;;;16.80;67.50;;;;;;5033763;28;20109;-71
2022/04/14 08:44:44;;;;;;;4.50;1.40;;;16.80;67.50;;;;;;5032756;28;20022;-71
2022/04/14 08:47:10;;;;;;;2.95;1.10;;;16.80;67.50;;;;;;5032400;28;20056;-71
2022/04/14 08:49:35;;;;;;;4.10;1.20;;;16.80;67.60;;;;;;5033678;28;20022;-71
2022/04/14 08:52:01;;;;;;;3.40;1.10;;;16.80;67.50;;;;;;5033716;28;20480;-71
2022/04/14 08:54:27;;;;;;;4.03;1.40;;;16.80;67.60;;;;;;5033538;28;20022;-71
2022/04/14 08:56:58;;;;;;;3.50;0.85;;;16.80;67.60;;;;;;5032611;28;20021;-71
2022/04/14 08:59:23;;;;;;;4.00;1.38;;;16.80;67.60;;;;;;5021946;28;20064;-71
2022/04/14 09:01:49;;;;;;;2.25;1.05;;;16.80;67.60;;;;;;5012310;28;20029;-71
2022/04/14 09:04:15;;;;;;;3.40;1.10;;;16.80;67.60;;;;;;5012295;28;20018;-71
2022/04/14 09:06:40;;;;;;;2.42;1.02;;;16.80;67.50;;;;;;5012626;28;20487;-71
2022/04/14 09:09:06;;;;;;;2.80;0.90;;;16.80;67.50;;;;;;5012494;28;20034;-71
2022/04/14 09:11:32;;;;;;;2.72;0.93;;;16.80;67.50;;;;;;5013536;28;20036;-71
2022/04/14 09:13:59;;;;;;;2.70;1.17;;;16.80;67.50;;;;;;5013550;28;20058;-71
2022/04/14 09:16:26;;;;;;;3.63;1.10;;;16.80;67.50;;;;;;4995843;28;20462;-71
2022/04/14 09:18:53;;;;;;;2.70;1.35;;;16.80;67.50;;;;;;5013488;28;20026;-71
2022/04/14 09:21:19;;;;;;;1.30;0.80;;;16.80;67.50;;;;;;5012029;28;20022;-71
2022/04/14 09:23:51;;;;;;;3.90;1.25;;;16.80;67.50;;;;;;5012187;28;20014;-71
2022/04/14 09:26:23;;;;;;;1.70;0.85;;;16.80;67.40;;;;;;5013137;28;20022;-71
2022/04/14 09:29:10;;;;;;;1.67;1.05;;;16.80;67.40;;;;;;5011932;28;20392;-71
2022/04/14 09:31:49;;;;;;;3.25;0.90;;;16.90;67.20;;;;;;5013129;28;20096;-71
2022/04/14 09:34:17;;;;;;;1.55;0.90;;;16.80;67.20;;;;;;5013179;28;20026;-71
2022/04/14 09:36:44;;;;;;;3.72;1.00;;;16.80;67.50;;;;;;5033018;28;20080;-71
2022/04/14 09:39:10;;;;;;;4.82;1.20;;;16.80;67.40;;;;;;5031597;28;20029;-71
2022/04/14 09:41:42;;;;;;;4.38;1.30;;;16.80;67.40;;;;;;5031423;28;20035;-71
2022/04/14 09:44:11;;;;;;;1.95;0.95;;;16.80;67.30;;;;;;5032754;28;20088;-71
2022/04/14 09:46:45;;;;;;;2.47;0.95;;;16.90;67.20;;;;;;5031113;28;20053;-71
2022/04/14 09:49:12;;;;;;;1.67;0.85;;;16.80;67.20;;;;;;5031432;28;20108;-71
2022/04/14 09:51:44;;;;;;;2.22;0.90;;;16.80;67.20;;;;;;5031433;28;20056;-71
2022/04/14 09:54:17;;;;;;;1.58;0.75;;;16.90;67.20;;;;;;5032666;28;20404;-71
2022/04/14 09:56:53;;;;;;;2.08;0.88;;;16.90;67.20;;;;;;5031637;28;20104;-71
2022/04/14 09:59:22;;;;;;;1.60;0.80;;;16.90;67.10;;;;;;5021600;28;20024;-71
2022/04/14 10:01:48;;;;;;;1.67;0.70;;;16.90;67.00;;;;;;5012461;28;20025;-71
2022/04/14 10:04:34;;;;;;;2.63;1.02;;;16.90;67.00;;;;;;5011632;28;20504;-71
2022/04/14 10:07:06;;;;;;;2.85;0.82;;;16.90;66.60;;;;;;5012700;28;20018;-71
2022/04/14 10:09:34;;;;;;;2.30;0.85;;;16.90;66.80;;;;;;5012535;28;20018;-71
2022/04/14 10:12:00;;;;;;;2.92;0.90;;;16.90;66.80;;;;;;5011611;28;20053;-71
2022/04/14 10:14:25;;;;;;;2.20;0.63;;;16.90;66.70;;;;;;5012330;28;20067;-71
2022/04/14 10:16:51;;;;;;;1.80;0.80;;;16.90;66.70;;;;;;5012679;28;20058;-71
2022/04/14 10:19:18;;;;;;;3.00;0.93;;;16.90;66.70;;;;;;5011514;28;20488;-71
2022/04/14 10:21:44;;;;;;;2.28;0.90;;;16.90;66.70;;;;;;5012449;28;20098;-71
2022/04/14 10:24:11;;;;;;;2.15;0.90;;;16.90;66.50;;;;;;5011334;28;20049;-71
2022/04/14 10:26:37;;;;;;;2.42;0.80;;;16.90;66.50;;;;;;5011388;28;20022;-71
2022/04/14 10:29:06;;;;;;;1.77;0.70;;;16.90;66.40;;;;;;5011345;28;20026;-71
2022/04/14 10:31:36;;;;;;;1.58;0.75;;;16.90;66.30;;;;;;5011274;28;20022;-71
2022/04/14 10:34:07;;;;;;;1.35;0.95;;;17.00;66.30;;;;;;5011393;28;20026;-71
2022/04/14 10:36:40;;;;;;;2.15;0.98;;;17.00;66.20;;;;;;5011403;28;20049;-71
2022/04/14 10:39:06;;;;;;;3.38;1.00;;;17.00;66.20;;;;;;5044155;28;20040;-71
2022/04/14 10:41:33;;;;;;;2.10;0.70;;;17.00;66.10;;;;;;5014493;28;20030;-71
2022/04/14 10:44:00;;;;;;;3.15;0.85;;;17.00;66.00;;;;;;5016455;28;20112;-71
2022/04/14 10:46:33;;;;;;;1.98;0.65;;;17.00;66.10;;;;;;5015979;28;20050;-71
2022/04/14 10:49:15;;;;;;;1.75;0.80;;;17.10;66.00;;;;;;5047931;28;20014;-71
2022/04/14 10:51:41;;;;;;;3.95;0.70;;;17.10;65.80;;;;;;5048184;28;20080;-71
2022/04/14 10:54:10;;;;;;;2.05;0.70;;;17.00;65.90;;;;;;5031365;28;20033;-71
2022/04/14 10:56:42;;;;;;;2.00;0.80;;;17.10;66.90;;;;;;5031439;28;20026;-71
2022/04/14 10:59:11;;;;;;;1.35;0.60;;;17.10;65.90;;;;;;5024168;28;20036;-71
2022/04/14 11:01:46;;;;;;;1.48;0.70;;;17.10;65.70;;;;;;5034453;28;20121;-71
2022/04/14 11:04:24;;;;;;;2.67;0.85;;;17.10;65.60;;;;;;5035686;28;20017;-71
2022/04/14 11:06:54;;;;;;;1.08;0.77;;;17.10;65.70;;;;;;5035812;28;20108;-71
2022/04/14 11:09:41;;;;;;;1.50;0.82;;;17.10;65.70;;;;;;5018523;28;20400;-71
2022/04/14 11:12:19;;;;;;;1.75;1.10;;;17.20;65.20;;;;;;5035583;28;20080;-71
2022/04/14 11:14:46;;;;;;;2.28;1.15;;;17.20;65.40;;;;;;5035660;28;20022;-71
2022/04/14 11:17:48;;;;;;;3.05;1.00;;;17.20;65.50;;;;;;5035624;28;20123;-71
2022/04/14 11:20:19;;;;;;;1.95;0.85;;;17.20;64.80;;;;;;4977810;28;20053;-71
2022/04/14 11:23:04;;;;;;;2.13;0.90;;;17.20;65.50;;;;;;4993904;28;20117;-71
2022/04/14 11:25:48;;;;;;;0.88;0.63;;;17.20;64.70;;;;;;4993490;28;20433;-71
2022/04/14 11:28:18;;;;;;;2.15;0.88;;;17.20;64.70;;;;;;4977351;28;20540;-71
2022/04/14 11:30:43;;;;;;;1.10;0.77;;;17.20;65.20;;;;;;4977711;28;20054;-71
2022/04/14 11:33:35;;;;;;;3.13;0.90;;;17.20;65.20;;;;;;4977416;28;20034;-71
2022/04/14 11:36:17;;;;;;;1.15;0.70;;;17.30;64.40;;;;;;4989323;28;20039;-71
2022/04/14 11:39:04;;;;;;;3.78;1.00;;;17.30;64.70;;;;;;5009962;28;20034;-71
2022/04/14 11:41:39;;;;;;;0.60;0.47;;;17.30;64.60;;;;;;4976730;28;20382;-71
2022/04/14 11:44:22;;;;;;;1.98;0.90;;;17.30;64.70;;;;;;5009924;28;20030;-71
2022/04/14 11:46:51;;;;;;;2.67;0.60;;;17.30;64.70;;;;;;5009771;28;20523;-71
2022/04/14 11:49:21;;;;;;;3.42;0.70;;;17.30;64.80;;;;;;5009737;28;20038;-71
2022/04/14 11:51:48;;;;;;;1.67;0.70;;;17.30;64.70;;;;;;4992447;28;20045;-71
2022/04/14 11:54:33;;;;;;;1.58;0.68;;;17.30;64.70;;;;;;5009717;28;20065;-71
2022/04/14 11:57:13;;;;;;;1.85;0.65;;;17.40;64.10;;;;;;5066628;28;20029;-71
2022/04/14 11:59:44;;;;;;;1.65;0.73;;;17.40;64.30;;;;;;5021126;28;20113;-71
2022/04/14 12:02:10;;;;;;;1.30;1.20;;;17.40;64.50;;;;;;5013819;28;20030;-71
2022/04/14 12:04:41;;;;;;;2.28;1.20;;;17.40;64.50;;;;;;5013605;28;20018;-71
2022/04/14 12:07:07;;;;;;;3.85;1.23;;;17.40;64.30;;;;;;5013619;28;20026;-71
2022/04/14 12:09:33;;;;;;;2.50;1.30;;;17.40;64.20;;;;;;5013767;28;20052;-71
2022/04/14 12:12:08;;;;;;;1.88;1.10;;;17.50;64.30;;;;;;5014755;28;20057;-71
2022/04/14 12:14:34;;;;;;;2.03;0.95;;;17.50;64.10;;;;;;5013377;28;20030;-71
2022/04/14 12:17:00;;;;;;;2.80;1.00;;;17.50;64.20;;;;;;5013548;28;20034;-71
2022/04/14 12:19:38;;;;;;;4.75;1.13;;;17.50;64.20;;;;;;5013349;28;20395;-71
2022/04/14 12:22:05;;;;;;;2.17;1.00;;;17.50;64.10;;;;;;5013352;28;20037;-71
2022/04/14 12:24:30;;;;;;;4.65;1.20;;;17.60;64.00;;;;;;5013220;28;20018;-71
2022/04/14 12:26:58;;;;;;;1.25;1.10;;;17.60;63.90;;;;;;5014370;28;20076;-71
2022/04/14 12:29:23;;;;;;;1.60;1.08;;;17.60;64.00;;;;;;5013245;28;20105;-71
2022/04/14 12:31:49;;;;;;;1.83;0.73;;;17.70;64.00;;;;;;5013199;28;20113;-71
2022/04/14 12:34:15;;;;;;;1.67;1.10;;;17.70;64.00;;;;;;5015630;28;20046;-71
2022/04/14 12:36:41;;;;;;;6.38;1.05;;;17.70;63.80;;;;;;5032922;28;20497;-71
2022/04/14 12:39:17;;;;;;;1.70;0.75;;;17.70;63.80;;;;;;5033987;28;20032;-71
2022/04/14 12:41:42;;;;;;;3.22;0.90;;;17.70;63.70;;;;;;5032636;28;20029;-71
2022/04/14 12:44:08;;;;;;;1.27;0.73;;;17.80;63.60;;;;;;5033961;28;20503;-71
2022/04/14 12:46:38;;;;;;;1.88;0.95;;;17.80;63.70;;;;;;5033580;28;20047;-71
2022/04/14 12:49:13;;;;;;;3.00;0.90;;;17.80;63.50;;;;;;5032738;28;20028;-71